sensor_id;sensor_type;location;lat;lon;timestamp;P1;durP1;ratioP1;P2;durP2;ratioP2
18336;SDS011;9294;51.106;7.028;2023-03-13T00:01:18;4.65;;;3.45;;
18336;SDS011;9294;51.106;7.028;2023-03-13T00:03:47;5.32;;;3.95;;
18336;SDS011;9294;51.106;7.028;2023-03-13T00:06:13;4.68;;;3.45;;
18336;SDS011;9294;51.106;7.028;2023-03-13T00:08:41;4.55;;;3.08;;
18336;SDS011;9294;51.106;7.028;2023-03-13T00:11:10;6.47;;;3.88;;
18336;SDS011;9294;51.106;7.028;2023-03-13T00:13:38;3.80;;;3.22;;
18336;SDS011;9294;51.106;7.028;2023-03-13T00:16:05;5.68;;;3.03;;
18336;SDS011;9294;51.106;7.028;2023-03-13T00:18:34;3.47;;;2.92;;
18336;SDS011;9294;51.106;7.028;2023-03-13T00:21:02;5.22;;;3.38;;
18336;SDS011;9294;51.106;7.028;2023-03-13T00:23:31;5.30;;;3.58;;
18336;SDS011;9294;51.106;7.028;2023-03-13T00:25:59;5.43;;;3.22;;
18336;SDS011;9294;51.106;7.028;2023-03-13T00:28:28;5.05;;;3.50;;
18336;SDS011;9294;51.106;7.028;2023-03-13T00:30:59;4.38;;;3.08;;
18336;SDS011;9294;51.106;7.028;2023-03-13T00:33:27;6.32;;;3.20;;
18336;SDS011;9294;51.106;7.028;2023-03-13T00:35:56;4.40;;;3.28;;
18336;SDS011;9294;51.106;7.028;2023-03-13T00:38:23;3.90;;;2.72;;
18336;SDS011;9294;51.106;7.028;2023-03-13T00:40:57;5.55;;;3.22;;
18336;SDS011;9294;51.106;7.028;2023-03-13T00:43:24;4.15;;;3.33;;
18336;SDS011;9294;51.106;7.028;2023-03-13T00:45:52;3.50;;;2.83;;
18336;SDS011;9294;51.106;7.028;2023-03-13T00:48:19;7.28;;;3.20;;
18336;SDS011;9294;51.106;7.028;2023-03-13T00:50:45;4.30;;;3.30;;
18336;SDS011;9294;51.106;7.028;2023-03-13T00:53:12;6.03;;;3.30;;
18336;SDS011;9294;51.106;7.028;2023-03-13T00:55:39;4.57;;;3.15;;
18336;SDS011;9294;51.106;7.028;2023-03-13T00:58:16;4.20;;;2.95;;
18336;SDS011;9294;51.106;7.028;2023-03-13T01:00:43;4.15;;;3.03;;
18336;SDS011;9294;51.106;7.028;2023-03-13T01:03:11;3.47;;;2.92;;
18336;SDS011;9294;51.106;7.028;2023-03-13T01:05:38;4.20;;;2.80;;
18336;SDS011;9294;51.106;7.028;2023-03-13T01:08:04;3.80;;;2.83;;
18336;SDS011;9294;51.106;7.028;2023-03-13T01:10:31;4.15;;;2.95;;
18336;SDS011;9294;51.106;7.028;2023-03-13T01:12:58;4.40;;;2.83;;
18336;SDS011;9294;51.106;7.028;2023-03-13T01:15:24;3.05;;;2.75;;
18336;SDS011;9294;51.106;7.028;2023-03-13T01:17:51;3.92;;;2.85;;
18336;SDS011;9294;51.106;7.028;2023-03-13T01:20:19;3.17;;;2.72;;
18336;SDS011;9294;51.106;7.028;2023-03-13T01:22:46;3.42;;;2.65;;
18336;SDS011;9294;51.106;7.028;2023-03-13T01:25:13;3.97;;;2.80;;
18336;SDS011;9294;51.106;7.028;2023-03-13T01:27:40;3.58;;;2.83;;
18336;SDS011;9294;51.106;7.028;2023-03-13T01:30:07;4.45;;;2.80;;
18336;SDS011;9294;51.106;7.028;2023-03-13T01:32:35;2.90;;;2.60;;
18336;SDS011;9294;51.106;7.028;2023-03-13T01:35:02;5.20;;;2.70;;
18336;SDS011;9294;51.106;7.028;2023-03-13T01:37:30;3.60;;;2.95;;
18336;SDS011;9294;51.106;7.028;2023-03-13T01:39:57;4.40;;;2.92;;
18336;SDS011;9294;51.106;7.028;2023-03-13T01:42:23;2.60;;;2.40;;
18336;SDS011;9294;51.106;7.028;2023-03-13T01:44:51;4.35;;;3.22;;
18336;SDS011;9294;51.106;7.028;2023-03-13T01:47:19;4.10;;;2.60;;
18336;SDS011;9294;51.106;7.028;2023-03-13T01:49:46;3.80;;;2.80;;
18336;SDS011;9294;51.106;7.028;2023-03-13T01:52:16;2.80;;;2.53;;
18336;SDS011;9294;51.106;7.028;2023-03-13T01:54:50;3.33;;;2.88;;
18336;SDS011;9294;51.106;7.028;2023-03-13T01:57:22;4.25;;;2.80;;
18336;SDS011;9294;51.106;7.028;2023-03-13T01:59:52;4.10;;;2.70;;
18336;SDS011;9294;51.106;7.028;2023-03-13T02:02:23;6.28;;;3.15;;
18336;SDS011;9294;51.106;7.028;2023-03-13T02:04:51;4.82;;;2.50;;
18336;SDS011;9294;51.106;7.028;2023-03-13T02:07:21;5.32;;;2.75;;
18336;SDS011;9294;51.106;7.028;2023-03-13T02:09:53;3.75;;;2.88;;
18336;SDS011;9294;51.106;7.028;2023-03-13T02:12:23;3.97;;;2.83;;
18336;SDS011;9294;51.106;7.028;2023-03-13T02:14:55;3.75;;;2.55;;
18336;SDS011;9294;51.106;7.028;2023-03-13T02:17:24;4.30;;;2.83;;
18336;SDS011;9294;51.106;7.028;2023-03-13T02:19:51;3.97;;;2.78;;
18336;SDS011;9294;51.106;7.028;2023-03-13T02:22:20;4.18;;;2.47;;
18336;SDS011;9294;51.106;7.028;2023-03-13T02:24:55;2.80;;;2.50;;
18336;SDS011;9294;51.106;7.028;2023-03-13T02:27:27;4.32;;;2.50;;
18336;SDS011;9294;51.106;7.028;2023-03-13T02:29:54;2.70;;;2.42;;
18336;SDS011;9294;51.106;7.028;2023-03-13T02:32:22;3.45;;;2.40;;
18336;SDS011;9294;51.106;7.028;2023-03-13T02:34:50;2.88;;;2.15;;
18336;SDS011;9294;51.106;7.028;2023-03-13T02:37:20;2.75;;;2.13;;
18336;SDS011;9294;51.106;7.028;2023-03-13T02:39:48;3.17;;;2.53;;
18336;SDS011;9294;51.106;7.028;2023-03-13T02:42:17;3.20;;;2.47;;
18336;SDS011;9294;51.106;7.028;2023-03-13T02:44:47;2.92;;;2.65;;
18336;SDS011;9294;51.106;7.028;2023-03-13T02:47:16;2.75;;;2.15;;
18336;SDS011;9294;51.106;7.028;2023-03-13T02:49:44;4.65;;;2.55;;
18336;SDS011;9294;51.106;7.028;2023-03-13T02:52:11;4.03;;;2.60;;
18336;SDS011;9294;51.106;7.028;2023-03-13T02:54:41;2.50;;;2.30;;
18336;SDS011;9294;51.106;7.028;2023-03-13T02:57:10;5.05;;;2.40;;
18336;SDS011;9294;51.106;7.028;2023-03-13T02:59:37;4.65;;;2.40;;
18336;SDS011;9294;51.106;7.028;2023-03-13T03:02:05;4.25;;;3.08;;
18336;SDS011;9294;51.106;7.028;2023-03-13T03:04:32;3.72;;;2.78;;
18336;SDS011;9294;51.106;7.028;2023-03-13T03:06:59;2.67;;;2.25;;
18336;SDS011;9294;51.106;7.028;2023-03-13T03:09:26;3.63;;;2.28;;
18336;SDS011;9294;51.106;7.028;2023-03-13T03:11:52;2.20;;;2.08;;
18336;SDS011;9294;51.106;7.028;2023-03-13T03:14:19;3.25;;;2.60;;
18336;SDS011;9294;51.106;7.028;2023-03-13T03:16:46;3.50;;;2.15;;
18336;SDS011;9294;51.106;7.028;2023-03-13T03:19:14;4.88;;;2.50;;
18336;SDS011;9294;51.106;7.028;2023-03-13T03:21:41;3.22;;;2.50;;
18336;SDS011;9294;51.106;7.028;2023-03-13T03:24:08;2.42;;;2.22;;
18336;SDS011;9294;51.106;7.028;2023-03-13T03:26:35;3.80;;;2.53;;
18336;SDS011;9294;51.106;7.028;2023-03-13T03:29:01;2.92;;;2.22;;
18336;SDS011;9294;51.106;7.028;2023-03-13T03:31:29;4.30;;;2.50;;
18336;SDS011;9294;51.106;7.028;2023-03-13T03:33:56;2.53;;;2.17;;
18336;SDS011;9294;51.106;7.028;2023-03-13T03:36:24;4.10;;;2.13;;
18336;SDS011;9294;51.106;7.028;2023-03-13T03:38:51;3.25;;;2.00;;
18336;SDS011;9294;51.106;7.028;2023-03-13T03:41:18;2.45;;;2.25;;
18336;SDS011;9294;51.106;7.028;2023-03-13T03:43:45;3.33;;;2.63;;
18336;SDS011;9294;51.106;7.028;2023-03-13T03:46:12;2.33;;;2.10;;
18336;SDS011;9294;51.106;7.028;2023-03-13T03:48:39;2.55;;;2.15;;
18336;SDS011;9294;51.106;7.028;2023-03-13T03:51:06;2.65;;;2.10;;
18336;SDS011;9294;51.106;7.028;2023-03-13T03:53:34;2.97;;;2.13;;
18336;SDS011;9294;51.106;7.028;2023-03-13T03:56:01;2.30;;;2.08;;
18336;SDS011;9294;51.106;7.028;2023-03-13T03:58:28;2.20;;;1.83;;
18336;SDS011;9294;51.106;7.028;2023-03-13T04:00:55;2.38;;;2.15;;
18336;SDS011;9294;51.106;7.028;2023-03-13T04:03:22;2.20;;;2.00;;
18336;SDS011;9294;51.106;7.028;2023-03-13T04:05:49;1.92;;;1.83;;
18336;SDS011;9294;51.106;7.028;2023-03-13T04:08:16;2.10;;;2.00;;
18336;SDS011;9294;51.106;7.028;2023-03-13T04:10:44;2.83;;;2.08;;
18336;SDS011;9294;51.106;7.028;2023-03-13T04:13:11;1.80;;;1.70;;
18336;SDS011;9294;51.106;7.028;2023-03-13T04:15:38;2.67;;;2.03;;
18336;SDS011;9294;51.106;7.028;2023-03-13T04:18:05;2.92;;;1.85;;
18336;SDS011;9294;51.106;7.028;2023-03-13T04:20:32;2.08;;;1.77;;
18336;SDS011;9294;51.106;7.028;2023-03-13T04:22:59;1.83;;;1.73;;
18336;SDS011;9294;51.106;7.028;2023-03-13T04:25:26;3.33;;;2.58;;
18336;SDS011;9294;51.106;7.028;2023-03-13T04:27:54;2.38;;;2.17;;
18336;SDS011;9294;51.106;7.028;2023-03-13T04:30:20;3.67;;;2.00;;
18336;SDS011;9294;51.106;7.028;2023-03-13T04:32:47;1.90;;;1.80;;
18336;SDS011;9294;51.106;7.028;2023-03-13T04:35:15;1.75;;;1.65;;
18336;SDS011;9294;51.106;7.028;2023-03-13T04:37:42;2.25;;;2.08;;
18336;SDS011;9294;51.106;7.028;2023-03-13T04:40:09;2.22;;;2.05;;
18336;SDS011;9294;51.106;7.028;2023-03-13T04:42:37;2.08;;;1.90;;
18336;SDS011;9294;51.106;7.028;2023-03-13T04:45:06;2.75;;;1.83;;
18336;SDS011;9294;51.106;7.028;2023-03-13T04:47:35;1.70;;;1.52;;
18336;SDS011;9294;51.106;7.028;2023-03-13T04:50:02;1.42;;;1.42;;
18336;SDS011;9294;51.106;7.028;2023-03-13T04:52:29;2.10;;;1.90;;
18336;SDS011;9294;51.106;7.028;2023-03-13T04:54:56;2.10;;;1.85;;
18336;SDS011;9294;51.106;7.028;2023-03-13T04:57:22;2.90;;;1.92;;
18336;SDS011;9294;51.106;7.028;2023-03-13T04:59:49;1.55;;;1.42;;
18336;SDS011;9294;51.106;7.028;2023-03-13T05:02:17;2.67;;;1.98;;
18336;SDS011;9294;51.106;7.028;2023-03-13T05:04:44;1.88;;;1.73;;
18336;SDS011;9294;51.106;7.028;2023-03-13T05:07:10;1.90;;;1.65;;
18336;SDS011;9294;51.106;7.028;2023-03-13T05:09:37;2.13;;;1.73;;
18336;SDS011;9294;51.106;7.028;2023-03-13T05:12:04;1.77;;;1.67;;
18336;SDS011;9294;51.106;7.028;2023-03-13T05:14:31;1.88;;;1.50;;
18336;SDS011;9294;51.106;7.028;2023-03-13T05:16:58;1.60;;;1.42;;
18336;SDS011;9294;51.106;7.028;2023-03-13T05:19:26;1.52;;;1.42;;
18336;SDS011;9294;51.106;7.028;2023-03-13T05:21:52;1.55;;;1.50;;
18336;SDS011;9294;51.106;7.028;2023-03-13T05:24:29;2.33;;;1.77;;
18336;SDS011;9294;51.106;7.028;2023-03-13T05:26:56;2.00;;;1.80;;
18336;SDS011;9294;51.106;7.028;2023-03-13T05:29:23;2.00;;;1.85;;
18336;SDS011;9294;51.106;7.028;2023-03-13T05:31:49;3.22;;;1.50;;
18336;SDS011;9294;51.106;7.028;2023-03-13T05:34:16;2.45;;;1.60;;
18336;SDS011;9294;51.106;7.028;2023-03-13T05:36:43;2.40;;;1.98;;
18336;SDS011;9294;51.106;7.028;2023-03-13T05:39:09;1.90;;;1.52;;
18336;SDS011;9294;51.106;7.028;2023-03-13T05:41:37;2.58;;;1.60;;
18336;SDS011;9294;51.106;7.028;2023-03-13T05:44:04;1.65;;;1.55;;
18336;SDS011;9294;51.106;7.028;2023-03-13T05:46:31;1.73;;;1.63;;
18336;SDS011;9294;51.106;7.028;2023-03-13T05:48:58;1.70;;;1.60;;
18336;SDS011;9294;51.106;7.028;2023-03-13T05:51:24;2.05;;;1.20;;
18336;SDS011;9294;51.106;7.028;2023-03-13T05:53:51;1.25;;;1.25;;
18336;SDS011;9294;51.106;7.028;2023-03-13T05:56:18;1.48;;;1.38;;
18336;SDS011;9294;51.106;7.028;2023-03-13T05:58:46;1.50;;;1.40;;
18336;SDS011;9294;51.106;7.028;2023-03-13T06:01:13;1.27;;;1.17;;
18336;SDS011;9294;51.106;7.028;2023-03-13T06:03:39;1.65;;;1.55;;
18336;SDS011;9294;51.106;7.028;2023-03-13T06:06:06;1.30;;;1.30;;
18336;SDS011;9294;51.106;7.028;2023-03-13T06:08:33;1.20;;;1.10;;
18336;SDS011;9294;51.106;7.028;2023-03-13T06:11:00;1.60;;;1.23;;
18336;SDS011;9294;51.106;7.028;2023-03-13T06:13:27;2.05;;;1.38;;
18336;SDS011;9294;51.106;7.028;2023-03-13T06:15:56;1.60;;;1.50;;
18336;SDS011;9294;51.106;7.028;2023-03-13T06:18:23;1.52;;;1.42;;
18336;SDS011;9294;51.106;7.028;2023-03-13T06:20:54;1.30;;;1.20;;
18336;SDS011;9294;51.106;7.028;2023-03-13T06:23:22;1.40;;;1.40;;
18336;SDS011;9294;51.106;7.028;2023-03-13T06:25:49;3.00;;;1.42;;
18336;SDS011;9294;51.106;7.028;2023-03-13T06:28:16;1.70;;;1.48;;
18336;SDS011;9294;51.106;7.028;2023-03-13T06:30:43;1.42;;;1.33;;
18336;SDS011;9294;51.106;7.028;2023-03-13T06:33:11;2.20;;;1.48;;
18336;SDS011;9294;51.106;7.028;2023-03-13T06:35:38;1.17;;;1.13;;
18336;SDS011;9294;51.106;7.028;2023-03-13T06:38:05;1.08;;;1.08;;
18336;SDS011;9294;51.106;7.028;2023-03-13T06:40:33;1.60;;;1.23;;
18336;SDS011;9294;51.106;7.028;2023-03-13T06:43:00;1.50;;;1.40;;
18336;SDS011;9294;51.106;7.028;2023-03-13T06:45:27;1.48;;;1.38;;
18336;SDS011;9294;51.106;7.028;2023-03-13T06:47:53;1.98;;;1.50;;
18336;SDS011;9294;51.106;7.028;2023-03-13T06:50:21;2.58;;;1.38;;
18336;SDS011;9294;51.106;7.028;2023-03-13T06:52:49;1.17;;;1.17;;
18336;SDS011;9294;51.106;7.028;2023-03-13T06:55:15;1.67;;;1.58;;
18336;SDS011;9294;51.106;7.028;2023-03-13T06:57:42;1.63;;;1.33;;
18336;SDS011;9294;51.106;7.028;2023-03-13T07:00:09;1.70;;;1.60;;
18336;SDS011;9294;51.106;7.028;2023-03-13T07:02:37;1.30;;;1.20;;
18336;SDS011;9294;51.106;7.028;2023-03-13T07:05:03;1.25;;;1.15;;
18336;SDS011;9294;51.106;7.028;2023-03-13T07:07:33;1.65;;;1.25;;
18336;SDS011;9294;51.106;7.028;2023-03-13T07:10:00;1.48;;;1.40;;
18336;SDS011;9294;51.106;7.028;2023-03-13T07:12:27;6.20;;;1.67;;
18336;SDS011;9294;51.106;7.028;2023-03-13T07:14:53;1.30;;;1.20;;
18336;SDS011;9294;51.106;7.028;2023-03-13T07:17:20;1.52;;;1.30;;
18336;SDS011;9294;51.106;7.028;2023-03-13T07:19:47;1.05;;;0.98;;
18336;SDS011;9294;51.106;7.028;2023-03-13T07:22:14;1.20;;;1.20;;
18336;SDS011;9294;51.106;7.028;2023-03-13T07:24:42;2.38;;;1.45;;
18336;SDS011;9294;51.106;7.028;2023-03-13T07:27:08;1.80;;;1.60;;
18336;SDS011;9294;51.106;7.028;2023-03-13T07:29:35;4.85;;;1.15;;
18336;SDS011;9294;51.106;7.028;2023-03-13T07:32:02;1.73;;;1.25;;
18336;SDS011;9294;51.106;7.028;2023-03-13T07:34:29;1.85;;;1.30;;
18336;SDS011;9294;51.106;7.028;2023-03-13T07:36:56;0.80;;;0.80;;
18336;SDS011;9294;51.106;7.028;2023-03-13T07:39:23;1.33;;;1.25;;
18336;SDS011;9294;51.106;7.028;2023-03-13T07:41:51;2.00;;;0.98;;
18336;SDS011;9294;51.106;7.028;2023-03-13T07:44:18;1.60;;;1.00;;
18336;SDS011;9294;51.106;7.028;2023-03-13T07:46:44;1.35;;;1.10;;
18336;SDS011;9294;51.106;7.028;2023-03-13T07:49:12;2.88;;;1.25;;
18336;SDS011;9294;51.106;7.028;2023-03-13T07:51:39;2.25;;;1.30;;
18336;SDS011;9294;51.106;7.028;2023-03-13T07:54:05;1.95;;;1.13;;
18336;SDS011;9294;51.106;7.028;2023-03-13T07:56:32;1.00;;;1.00;;
18336;SDS011;9294;51.106;7.028;2023-03-13T07:59:00;1.48;;;1.38;;
18336;SDS011;9294;51.106;7.028;2023-03-13T08:01:27;3.72;;;1.23;;
18336;SDS011;9294;51.106;7.028;2023-03-13T08:03:54;7.85;;;1.40;;
18336;SDS011;9294;51.106;7.028;2023-03-13T08:06:21;1.42;;;1.30;;
18336;SDS011;9294;51.106;7.028;2023-03-13T08:08:48;4.13;;;1.52;;
18336;SDS011;9294;51.106;7.028;2023-03-13T08:11:16;1.58;;;1.48;;
18336;SDS011;9294;51.106;7.028;2023-03-13T08:13:44;1.40;;;1.08;;
18336;SDS011;9294;51.106;7.028;2023-03-13T08:16:13;1.63;;;1.50;;
18336;SDS011;9294;51.106;7.028;2023-03-13T08:18:41;3.67;;;1.65;;
18336;SDS011;9294;51.106;7.028;2023-03-13T08:21:10;9.80;;;1.95;;
18336;SDS011;9294;51.106;7.028;2023-03-13T08:23:38;8.38;;;1.90;;
18336;SDS011;9294;51.106;7.028;2023-03-13T08:26:05;3.70;;;1.90;;
18336;SDS011;9294;51.106;7.028;2023-03-13T08:28:33;4.10;;;1.75;;
18336;SDS011;9294;51.106;7.028;2023-03-13T08:31:07;7.00;;;2.25;;
18336;SDS011;9294;51.106;7.028;2023-03-13T08:33:37;2.80;;;2.00;;
18336;SDS011;9294;51.106;7.028;2023-03-13T08:36:09;4.00;;;1.80;;
18336;SDS011;9294;51.106;7.028;2023-03-13T08:38:37;3.65;;;1.67;;
18336;SDS011;9294;51.106;7.028;2023-03-13T08:41:06;5.65;;;2.17;;
18336;SDS011;9294;51.106;7.028;2023-03-13T08:43:33;2.67;;;1.65;;
18336;SDS011;9294;51.106;7.028;2023-03-13T08:46:00;2.22;;;1.75;;
18336;SDS011;9294;51.106;7.028;2023-03-13T08:48:26;3.47;;;1.63;;
18336;SDS011;9294;51.106;7.028;2023-03-13T08:51:01;1.92;;;1.60;;
18336;SDS011;9294;51.106;7.028;2023-03-13T08:53:30;3.10;;;1.52;;
18336;SDS011;9294;51.106;7.028;2023-03-13T08:55:58;3.97;;;1.73;;
18336;SDS011;9294;51.106;7.028;2023-03-13T08:58:25;3.97;;;2.00;;
18336;SDS011;9294;51.106;7.028;2023-03-13T09:00:52;4.32;;;1.85;;
18336;SDS011;9294;51.106;7.028;2023-03-13T09:03:19;3.85;;;2.17;;
18336;SDS011;9294;51.106;7.028;2023-03-13T09:05:46;2.63;;;2.15;;
18336;SDS011;9294;51.106;7.028;2023-03-13T09:08:14;2.67;;;2.30;;
18336;SDS011;9294;51.106;7.028;2023-03-13T09:10:41;1.65;;;1.52;;
18336;SDS011;9294;51.106;7.028;2023-03-13T09:13:07;2.13;;;1.90;;
18336;SDS011;9294;51.106;7.028;2023-03-13T09:15:34;2.17;;;1.40;;
18336;SDS011;9294;51.106;7.028;2023-03-13T09:18:02;2.03;;;1.60;;
18336;SDS011;9294;51.106;7.028;2023-03-13T09:20:28;2.97;;;1.98;;
18336;SDS011;9294;51.106;7.028;2023-03-13T09:22:55;3.10;;;1.70;;
18336;SDS011;9294;51.106;7.028;2023-03-13T09:25:23;2.13;;;1.65;;
18336;SDS011;9294;51.106;7.028;2023-03-13T09:27:50;7.28;;;2.20;;
18336;SDS011;9294;51.106;7.028;2023-03-13T09:30:17;3.05;;;1.85;;
18336;SDS011;9294;51.106;7.028;2023-03-13T09:32:43;1.98;;;1.75;;
18336;SDS011;9294;51.106;7.028;2023-03-13T09:35:10;2.45;;;1.55;;
18336;SDS011;9294;51.106;7.028;2023-03-13T09:37:37;2.38;;;2.10;;
18336;SDS011;9294;51.106;7.028;2023-03-13T09:40:04;2.67;;;2.10;;
18336;SDS011;9294;51.106;7.028;2023-03-13T09:42:37;2.42;;;1.70;;
18336;SDS011;9294;51.106;7.028;2023-03-13T09:45:11;2.88;;;1.60;;
18336;SDS011;9294;51.106;7.028;2023-03-13T09:47:43;3.03;;;1.65;;
18336;SDS011;9294;51.106;7.028;2023-03-13T09:50:12;2.75;;;1.77;;
18336;SDS011;9294;51.106;7.028;2023-03-13T09:52:43;6.00;;;2.08;;
18336;SDS011;9294;51.106;7.028;2023-03-13T09:55:11;1.88;;;1.75;;
18336;SDS011;9294;51.106;7.028;2023-03-13T09:57:48;4.40;;;1.90;;
18336;SDS011;9294;51.106;7.028;2023-03-13T10:00:18;4.68;;;1.80;;
18336;SDS011;9294;51.106;7.028;2023-03-13T10:02:51;2.05;;;1.65;;
18336;SDS011;9294;51.106;7.028;2023-03-13T10:05:22;3.63;;;1.70;;
18336;SDS011;9294;51.106;7.028;2023-03-13T10:07:50;4.55;;;1.90;;
18336;SDS011;9294;51.106;7.028;2023-03-13T10:10:24;3.25;;;2.05;;
18336;SDS011;9294;51.106;7.028;2023-03-13T10:13:01;2.63;;;1.60;;
18336;SDS011;9294;51.106;7.028;2023-03-13T10:15:36;4.03;;;1.60;;
18336;SDS011;9294;51.106;7.028;2023-03-13T10:18:13;5.65;;;1.77;;
18336;SDS011;9294;51.106;7.028;2023-03-13T10:20:45;6.65;;;1.60;;
18336;SDS011;9294;51.106;7.028;2023-03-13T10:23:15;2.75;;;1.83;;
18336;SDS011;9294;51.106;7.028;2023-03-13T10:25:46;4.00;;;1.52;;
18336;SDS011;9294;51.106;7.028;2023-03-13T10:28:15;5.78;;;1.73;;
18336;SDS011;9294;51.106;7.028;2023-03-13T10:30:45;10.00;;;1.88;;
18336;SDS011;9294;51.106;7.028;2023-03-13T10:33:25;1.33;;;1.20;;
18336;SDS011;9294;51.106;7.028;2023-03-13T10:36:00;3.28;;;1.70;;
18336;SDS011;9294;51.106;7.028;2023-03-13T10:38:33;1.50;;;1.27;;
18336;SDS011;9294;51.106;7.028;2023-03-13T10:41:17;4.78;;;1.52;;
18336;SDS011;9294;51.106;7.028;2023-03-13T10:43:52;3.00;;;1.55;;
18336;SDS011;9294;51.106;7.028;2023-03-13T10:46:24;3.05;;;1.58;;
18336;SDS011;9294;51.106;7.028;2023-03-13T10:48:52;1.50;;;1.33;;
18336;SDS011;9294;51.106;7.028;2023-03-13T10:51:21;1.15;;;1.00;;
18336;SDS011;9294;51.106;7.028;2023-03-13T10:53:49;1.50;;;1.38;;
18336;SDS011;9294;51.106;7.028;2023-03-13T10:56:18;4.05;;;2.10;;
18336;SDS011;9294;51.106;7.028;2023-03-13T10:58:51;1.60;;;1.17;;
18336;SDS011;9294;51.106;7.028;2023-03-13T11:01:20;3.80;;;1.60;;
18336;SDS011;9294;51.106;7.028;2023-03-13T11:03:48;2.20;;;1.40;;
18336;SDS011;9294;51.106;7.028;2023-03-13T11:06:27;1.95;;;1.13;;
18336;SDS011;9294;51.106;7.028;2023-03-13T11:08:59;2.33;;;1.60;;
18336;SDS011;9294;51.106;7.028;2023-03-13T11:11:30;3.17;;;1.40;;
18336;SDS011;9294;51.106;7.028;2023-03-13T11:14:12;2.50;;;1.50;;
18336;SDS011;9294;51.106;7.028;2023-03-13T11:16:42;1.75;;;1.30;;
18336;SDS011;9294;51.106;7.028;2023-03-13T11:19:24;1.52;;;1.42;;
18336;SDS011;9294;51.106;7.028;2023-03-13T11:21:59;2.97;;;1.88;;
18336;SDS011;9294;51.106;7.028;2023-03-13T11:24:39;5.93;;;2.58;;
18336;SDS011;9294;51.106;7.028;2023-03-13T11:27:14;3.67;;;1.75;;
18336;SDS011;9294;51.106;7.028;2023-03-13T11:29:51;4.25;;;2.40;;
18336;SDS011;9294;51.106;7.028;2023-03-13T11:32:28;2.85;;;1.77;;
18336;SDS011;9294;51.106;7.028;2023-03-13T11:34:59;3.83;;;1.75;;
18336;SDS011;9294;51.106;7.028;2023-03-13T11:37:32;3.70;;;1.85;;
18336;SDS011;9294;51.106;7.028;2023-03-13T11:40:02;4.18;;;1.90;;
18336;SDS011;9294;51.106;7.028;2023-03-13T11:42:43;1.70;;;1.60;;
18336;SDS011;9294;51.106;7.028;2023-03-13T11:45:29;4.70;;;2.05;;
18336;SDS011;9294;51.106;7.028;2023-03-13T11:48:15;2.28;;;1.80;;
18336;SDS011;9294;51.106;7.028;2023-03-13T11:50:51;2.67;;;1.77;;
18336;SDS011;9294;51.106;7.028;2023-03-13T11:53:33;3.65;;;1.30;;
18336;SDS011;9294;51.106;7.028;2023-03-13T11:56:11;2.47;;;1.50;;
18336;SDS011;9294;51.106;7.028;2023-03-13T11:58:47;1.38;;;1.38;;
18336;SDS011;9294;51.106;7.028;2023-03-13T12:01:25;2.60;;;1.30;;
18336;SDS011;9294;51.106;7.028;2023-03-13T12:03:55;3.60;;;1.65;;
18336;SDS011;9294;51.106;7.028;2023-03-13T12:06:24;1.27;;;1.15;;
18336;SDS011;9294;51.106;7.028;2023-03-13T12:08:57;1.60;;;1.20;;
18336;SDS011;9294;51.106;7.028;2023-03-13T12:11:30;2.10;;;1.40;;
18336;SDS011;9294;51.106;7.028;2023-03-13T12:14:03;4.57;;;1.33;;
18336;SDS011;9294;51.106;7.028;2023-03-13T12:16:38;3.22;;;1.58;;
18336;SDS011;9294;51.106;7.028;2023-03-13T12:19:09;1.67;;;1.58;;
18336;SDS011;9294;51.106;7.028;2023-03-13T12:21:41;1.40;;;1.27;;
18336;SDS011;9294;51.106;7.028;2023-03-13T12:24:13;2.22;;;1.50;;
18336;SDS011;9294;51.106;7.028;2023-03-13T12:26:47;1.48;;;1.38;;
18336;SDS011;9294;51.106;7.028;2023-03-13T12:29:22;2.88;;;1.25;;
18336;SDS011;9294;51.106;7.028;2023-03-13T12:32:01;0.90;;;0.90;;
18336;SDS011;9294;51.106;7.028;2023-03-13T12:34:34;3.40;;;1.70;;
18336;SDS011;9294;51.106;7.028;2023-03-13T12:37:09;1.17;;;1.17;;
18336;SDS011;9294;51.106;7.028;2023-03-13T12:39:44;1.85;;;1.30;;
18336;SDS011;9294;51.106;7.028;2023-03-13T12:42:18;2.88;;;1.17;;
18336;SDS011;9294;51.106;7.028;2023-03-13T12:44:55;2.85;;;1.13;;
18336;SDS011;9294;51.106;7.028;2023-03-13T12:47:25;1.25;;;1.08;;
18336;SDS011;9294;51.106;7.028;2023-03-13T12:50:08;1.85;;;1.35;;
18336;SDS011;9294;51.106;7.028;2023-03-13T12:53:01;5.10;;;1.40;;
18336;SDS011;9294;51.106;7.028;2023-03-13T12:56:01;4.78;;;1.48;;
18336;SDS011;9294;51.106;7.028;2023-03-13T12:58:42;1.38;;;1.10;;
18336;SDS011;9294;51.106;7.028;2023-03-13T13:01:14;2.55;;;0.85;;
18336;SDS011;9294;51.106;7.028;2023-03-13T13:03:50;1.42;;;1.33;;
18336;SDS011;9294;51.106;7.028;2023-03-13T13:06:19;1.65;;;1.17;;
18336;SDS011;9294;51.106;7.028;2023-03-13T13:09:00;1.55;;;1.08;;
18336;SDS011;9294;51.106;7.028;2023-03-13T13:11:45;1.85;;;1.05;;
18336;SDS011;9294;51.106;7.028;2023-03-13T13:17:23;1.75;;;0.80;;
18336;SDS011;9294;51.106;7.028;2023-03-13T13:19:59;2.38;;;1.13;;
18336;SDS011;9294;51.106;7.028;2023-03-13T13:32:29;2.60;;;0.90;;
18336;SDS011;9294;51.106;7.028;2023-03-13T13:35:02;1.23;;;1.10;;
18336;SDS011;9294;51.106;7.028;2023-03-13T13:37:31;0.80;;;0.80;;
18336;SDS011;9294;51.106;7.028;2023-03-13T13:40:16;1.00;;;1.00;;
18336;SDS011;9294;51.106;7.028;2023-03-13T13:42:49;2.03;;;0.93;;
18336;SDS011;9294;51.106;7.028;2023-03-13T13:53:59;1.00;;;1.00;;
18336;SDS011;9294;51.106;7.028;2023-03-13T13:56:29;1.25;;;1.25;;
18336;SDS011;9294;51.106;7.028;2023-03-13T13:59:04;1.02;;;1.02;;
18336;SDS011;9294;51.106;7.028;2023-03-13T14:01:49;0.80;;;0.80;;
18336;SDS011;9294;51.106;7.028;2023-03-13T14:04:32;1.85;;;0.80;;
18336;SDS011;9294;51.106;7.028;2023-03-13T14:07:02;0.75;;;0.75;;
18336;SDS011;9294;51.106;7.028;2023-03-13T14:09:32;0.93;;;0.93;;
18336;SDS011;9294;51.106;7.028;2023-03-13T14:15:05;0.90;;;0.90;;
18336;SDS011;9294;51.106;7.028;2023-03-13T14:17:39;1.13;;;1.13;;
18336;SDS011;9294;51.106;7.028;2023-03-13T14:20:17;0.93;;;0.93;;
18336;SDS011;9294;51.106;7.028;2023-03-13T14:22:51;1.02;;;1.00;;
18336;SDS011;9294;51.106;7.028;2023-03-13T14:25:19;0.85;;;0.85;;
18336;SDS011;9294;51.106;7.028;2023-03-13T14:27:47;0.85;;;0.85;;
18336;SDS011;9294;51.106;7.028;2023-03-13T14:30:17;1.08;;;1.00;;
18336;SDS011;9294;51.106;7.028;2023-03-13T14:32:44;1.17;;;0.95;;
18336;SDS011;9294;51.106;7.028;2023-03-13T14:35:12;1.85;;;0.80;;
18336;SDS011;9294;51.106;7.028;2023-03-13T14:37:41;2.08;;;0.95;;
18336;SDS011;9294;51.106;7.028;2023-03-13T14:40:15;0.85;;;0.85;;
18336;SDS011;9294;51.106;7.028;2023-03-13T14:42:47;0.98;;;0.98;;
18336;SDS011;9294;51.106;7.028;2023-03-13T14:45:19;1.00;;;1.00;;
18336;SDS011;9294;51.106;7.028;2023-03-13T14:47:48;0.88;;;0.88;;
18336;SDS011;9294;51.106;7.028;2023-03-13T14:50:17;0.80;;;0.80;;
18336;SDS011;9294;51.106;7.028;2023-03-13T14:52:48;0.90;;;0.90;;
18336;SDS011;9294;51.106;7.028;2023-03-13T14:55:28;0.90;;;0.90;;
18336;SDS011;9294;51.106;7.028;2023-03-13T14:57:59;0.93;;;0.80;;
18336;SDS011;9294;51.106;7.028;2023-03-13T15:00:30;0.70;;;0.70;;
18336;SDS011;9294;51.106;7.028;2023-03-13T15:05:52;0.82;;;0.82;;
18336;SDS011;9294;51.106;7.028;2023-03-13T15:08:32;0.90;;;0.88;;
18336;SDS011;9294;51.106;7.028;2023-03-13T15:11:00;0.73;;;0.73;;
18336;SDS011;9294;51.106;7.028;2023-03-13T15:13:32;1.45;;;1.10;;
18336;SDS011;9294;51.106;7.028;2023-03-13T15:16:01;0.70;;;0.70;;
18336;SDS011;9294;51.106;7.028;2023-03-13T15:18:29;1.15;;;1.05;;
18336;SDS011;9294;51.106;7.028;2023-03-13T15:20:57;3.15;;;0.80;;
18336;SDS011;9294;51.106;7.028;2023-03-13T15:23:43;2.30;;;1.08;;
18336;SDS011;9294;51.106;7.028;2023-03-13T15:26:14;1.65;;;1.10;;
18336;SDS011;9294;51.106;7.028;2023-03-13T15:28:42;1.10;;;1.10;;
18336;SDS011;9294;51.106;7.028;2023-03-13T15:31:09;1.15;;;0.90;;
18336;SDS011;9294;51.106;7.028;2023-03-13T15:33:38;1.60;;;0.80;;
18336;SDS011;9294;51.106;7.028;2023-03-13T15:36:06;0.98;;;0.98;;
18336;SDS011;9294;51.106;7.028;2023-03-13T15:38:33;0.73;;;0.73;;
18336;SDS011;9294;51.106;7.028;2023-03-13T15:41:00;1.30;;;0.95;;
18336;SDS011;9294;51.106;7.028;2023-03-13T15:43:27;23.27;;;1.40;;